Time;durP1;ratioP1;P1;durP2;ratioP2;P2;SDS_P1;SDS_P2;PMS_P1;PMS_P2;Temp;Humidity;BMP_temperature;BMP_pressure;BME280_temperature;BME280_humidity;BME280_pressure;Samples;Min_cycle;Max_cycle;Signal;HPM_P1;HPM_P2
2022/11/14 00:02:18;;;;;;;;;;;;;;;2.60;74.74;101390.28;5058476;28;20366;-33
2022/11/14 00:04:46;;;;;;;;;;;;;;;2.61;75.08;101380.78;5066445;28;19985;-33
2022/11/14 00:07:11;;;;;;;;;;;;;;;2.64;74.91;101371.31;5055394;28;19917;-33
2022/11/14 00:09:41;;;;;;;;;;;;;;;2.66;74.85;101364.47;5059368;28;20402;-33
2022/11/14 00:12:07;;;;;;;;;;;;;;;2.68;74.99;101365.41;5065404;28;19957;-33
2022/11/14 00:14:32;;;;;;;;;;;;;;;2.71;74.79;101363.75;5065351;28;19936;-33
2022/11/14 00:16:58;;;;;;;;;;;;;;;2.71;74.40;101368.94;5058083;28;19924;-33
2022/11/14 00:19:23;;;;;;;;;;;;;;;2.71;74.90;101366.34;5064258;28;19999;-33
2022/11/14 00:21:48;;;;;;;;;;;;;;;2.71;74.71;101363.75;5062108;28;20400;-33
2022/11/14 00:24:13;;;;;;;;;;;;;;;2.72;74.84;101363.78;5068537;28;20399;-33
2022/11/14 00:26:38;;;;;;;;;;;;;;;2.75;74.62;101360.41;5054793;28;20357;-33
2022/11/14 00:29:04;;;;;;;;;;;;;;;2.77;74.86;101353.53;5052938;28;20523;-33
2022/11/14 00:31:29;;;;;;;;;;;;;;;2.76;74.74;101355.25;5059966;28;20354;-33
2022/11/14 00:33:54;;;;;;;;;;;;;;;2.78;74.49;101344.88;5062060;28;19925;-33
2022/11/14 00:36:20;;;;;;;;;;;;;;;2.79;74.71;101350.16;5051990;28;19916;-33
2022/11/14 00:38:45;;;;;;;;;;;;;;;2.82;74.59;101355.47;5053364;28;19916;-33
2022/11/14 00:41:10;;;;;;;;;;;;;;;2.81;74.59;101337.19;5057062;28;19916;-33
2022/11/14 00:43:35;;;;;;;;;;;;;;;2.80;74.74;101349.31;5055629;28;20037;-33
2022/11/14 00:46:00;;;;;;;;;;;;;;;2.81;74.82;101335.44;5066326;28;19923;-33
2022/11/14 00:48:26;;;;;;;;;;;;;;;2.85;74.97;101339.03;5050227;28;19925;-33
2022/11/14 00:50:51;;;;;;;;;;;;;;;2.84;74.81;101337.28;5053094;28;19924;-33
2022/11/14 00:53:16;;;;;;;;;;;;;;;2.87;74.77;101337.34;5061608;28;19956;-33
2022/11/14 00:55:41;;;;;;;;;;;;;;;2.87;75.13;101332.16;5059604;28;19951;-33
2022/11/14 00:58:07;;;;;;;;;;;;;;;2.87;74.87;101334.75;5047616;28;19917;-33
2022/11/14 01:00:32;;;;;;;;;;;;;;;2.89;75.03;101332.19;5058116;28;19970;-33
2022/11/14 01:02:57;;;;;;;;;;;;;;;2.88;74.75;101326.13;5058542;28;20255;-33
2022/11/14 01:05:23;;;;;;;;;;;;;;;2.90;74.76;101321.84;5036276;28;20400;-33
2022/11/14 01:07:48;;;;;;;;;;;;;;;2.91;74.91;101328.84;5045485;28;19923;-33
2022/11/14 01:10:14;;;;;;;;;;;;;;;2.93;75.17;101316.72;5065002;28;19963;-33
2022/11/14 01:12:39;;;;;;;;;;;;;;;2.93;74.69;101316.72;5053531;28;20312;-33
2022/11/14 01:15:05;;;;;;;;;;;;;;;2.93;74.63;101316.72;5047369;28;19928;-33
2022/11/14 01:17:30;;;;;;;;;;;;;;;2.94;74.85;101308.06;5056445;28;19917;-33
2022/11/14 01:19:56;;;;;;;;;;;;;;;2.96;74.86;101302.91;5040841;28;19920;-33
2022/11/14 01:22:21;;;;;;;;;;;;;;;2.98;75.18;101300.34;5062877;28;20256;-33
2022/11/14 01:24:46;;;;;;;;;;;;;;;2.99;75.21;101294.28;5053737;28;19924;-33
2022/11/14 01:27:11;;;;;;;;;;;;;;;2.98;75.15;101295.13;5051333;28;20409;-33
2022/11/14 01:29:36;;;;;;;;;;;;;;;3.01;74.70;101290.03;5056679;28;19917;-32
2022/11/14 01:32:02;;;;;;;;;;;;;;;3.02;74.84;101294.41;5034028;28;19921;-33
2022/11/14 01:34:28;;;;;;;;;;;;;;;3.01;74.73;101298.75;5037314;28;19921;-33
2022/11/14 01:36:53;;;;;;;;;;;;;;;3.03;74.86;101290.97;5061126;28;20292;-33
2022/11/14 01:39:18;;;;;;;;;;;;;;;3.02;75.20;101284.88;5061850;28;19913;-33
2022/11/14 01:41:44;;;;;;;;;;;;;;;3.04;74.98;101282.31;5055288;28;19944;-33
2022/11/14 01:44:14;;;;;;;;;;;;;;;3.04;75.02;101277.09;5055788;28;19974;-33
2022/11/14 01:46:39;;;;;;;;;;;;;;;3.03;75.04;101281.41;5042437;28;19917;-33
2022/11/14 01:49:14;;;;;;;;;;;;;;;3.06;74.68;101271.09;5036527;28;20262;-33
2022/11/14 01:51:39;;;;;;;;;;;;;;;3.06;75.11;101260.69;5036904;28;19970;-33
2022/11/14 01:54:05;;;;;;;;;;;;;;;3.08;75.28;101255.50;5063055;28;19928;-33
2022/11/14 01:56:38;;;;;;;;;;;;;;;3.07;75.13;101240.72;5043324;28;20015;-33
2022/11/14 01:59:07;;;;;;;;;;;;;;;3.11;74.69;101239.06;5024790;28;20087;-33
2022/11/14 02:01:33;;;;;;;;;;;;;;;3.11;74.82;101242.59;5060590;28;20333;-33
2022/11/14 02:03:58;;;;;;;;;;;;;;;3.13;74.69;101246.09;5057149;28;20015;-33
2022/11/14 02:06:24;;;;;;;;;;;;;;;3.13;75.30;101235.69;5042558;28;20015;-33
2022/11/14 02:08:49;;;;;;;;;;;;;;;3.15;75.47;101234.00;5038803;28;19917;-33
2022/11/14 02:11:15;;;;;;;;;;;;;;;3.15;74.91;101239.22;5047109;28;19912;-33
2022/11/14 02:13:40;;;;;;;;;;;;;;;3.14;75.27;101227.00;5069392;28;19921;-33
2022/11/14 02:16:05;;;;;;;;;;;;;;;3.17;75.32;101232.31;5038399;28;19920;-33
2022/11/14 02:18:30;;;;;;;;;;;;;;;3.19;74.91;101230.66;5056514;28;19916;-33
2022/11/14 02:20:56;;;;;;;;;;;;;;;3.19;74.76;101228.06;5046515;28;19917;-33
2022/11/14 02:23:28;;;;;;;;;;;;;;;3.20;74.89;101227.22;5040599;28;19924;-33
2022/11/14 02:25:53;;;;;;;;;;;;;;;3.21;74.75;101228.97;5049673;28;20310;-33
2022/11/14 02:28:20;;;;;;;;;;;;;;;3.24;74.98;101223.00;5054252;28;19921;-33
2022/11/14 02:30:45;;;;;;;;;;;;;;;3.23;74.87;101215.13;5056372;28;19956;-33
2022/11/14 02:33:10;;;;;;;;;;;;;;;3.24;74.78;101222.09;5055300;28;19982;-33
2022/11/14 02:35:36;;;;;;;;;;;;;;;3.26;74.66;101215.19;5034847;28;19966;-33
2022/11/14 02:38:01;;;;;;;;;;;;;;;3.25;75.11;101214.31;5034301;28;20019;-33
2022/11/14 02:40:26;;;;;;;;;;;;;;;3.24;75.04;101207.34;5060156;28;20004;-33
2022/11/14 02:42:51;;;;;;;;;;;;;;;3.26;75.27;101208.25;5066019;28;19940;-32
2022/11/14 02:45:18;;;;;;;;;;;;;;;3.28;74.85;101203.09;5055561;28;19919;-33
2022/11/14 02:47:43;;;;;;;;;;;;;;;3.29;75.32;101204.84;5033535;28;19975;-33
2022/11/14 02:50:08;;;;;;;;;;;;;;;3.29;74.84;101197.94;5042270;28;19986;-33
2022/11/14 02:52:33;;;;;;;;;;;;;;;3.31;74.71;101192.75;5060118;28;20021;-33
2022/11/14 02:54:59;;;;;;;;;;;;;;;3.32;74.59;101195.41;5035184;28;19971;-33
2022/11/14 02:57:24;;;;;;;;;;;;;;;3.33;75.30;101185.84;5032585;28;19978;-33
2022/11/14 02:59:49;;;;;;;;;;;;;;;3.34;75.07;101195.47;5060305;28;19917;-33
2022/11/14 03:02:14;;;;;;;;;;;;;;;3.35;75.42;101199.81;5064263;28;19916;-33
2022/11/14 03:04:40;;;;;;;;;;;;;;;3.34;75.35;101187.63;5051395;28;19917;-33
2022/11/14 03:07:05;;;;;;;;;;;;;;;3.36;75.01;101191.16;5051704;28;19917;-33
2022/11/14 03:09:30;;;;;;;;;;;;;;;3.36;75.24;101183.34;5053004;28;19949;-33
2022/11/14 03:11:55;;;;;;;;;;;;;;;3.37;75.41;101192.91;5045520;28;19920;-33
2022/11/14 03:14:20;;;;;;;;;;;;;;;3.39;75.47;101185.13;5058486;28;20333;-33
2022/11/14 03:16:46;;;;;;;;;;;;;;;3.39;75.38;101183.44;5061175;28;19920;-33
2022/11/14 03:19:11;;;;;;;;;;;;;;;3.40;75.28;101182.56;5060624;28;19952;-33
2022/11/14 03:21:36;;;;;;;;;;;;;;;3.40;75.24;101176.50;5048099;28;19921;-33
2022/11/14 03:24:01;;;;;;;;;;;;;;;3.40;75.01;101177.38;5048890;28;19921;-33
2022/11/14 03:26:27;;;;;;;;;;;;;;;3.41;75.40;101168.72;5047835;28;19917;-33
2022/11/14 03:28:54;;;;;;;;;;;;;;;3.42;75.37;101159.16;5054182;28;19917;-33
2022/11/14 03:31:19;;;;;;;;;;;;;;;3.41;74.90;101160.91;5048176;28;19971;-33
2022/11/14 03:33:44;;;;;;;;;;;;;;;3.44;74.81;101174.00;5050987;28;19920;-33
2022/11/14 03:36:09;;;;;;;;;;;;;;;3.44;74.96;101179.22;5042829;28;19921;-33
2022/11/14 03:38:35;;;;;;;;;;;;;;;3.46;75.38;101182.75;5050769;28;19924;-33
2022/11/14 03:41:00;;;;;;;;;;;;;;;3.49;75.08;101181.06;5046823;28;19974;-33
2022/11/14 03:43:25;;;;;;;;;;;;;;;3.49;75.10;101165.41;5054830;28;20282;-33
2022/11/14 03:45:50;;;;;;;;;;;;;;;3.49;75.60;101165.41;5054773;28;20400;-33
2022/11/14 03:48:16;;;;;;;;;;;;;;;3.49;75.55;101155.88;5031924;28;19924;-33
2022/11/14 03:50:42;;;;;;;;;;;;;;;3.50;75.21;101162.00;5025371;28;19924;-33
2022/11/14 03:53:07;;;;;;;;;;;;;;;3.51;75.33;101155.94;5048494;28;19917;-33
2022/11/14 03:55:32;;;;;;;;;;;;;;;3.53;75.28;101168.16;5051326;28;19928;-33
2022/11/14 03:57:57;;;;;;;;;;;;;;;3.53;75.58;101167.31;5050073;28;19917;-33
2022/11/14 04:00:23;;;;;;;;;;;;;;;3.55;75.93;101165.59;5050290;28;19921;-33
2022/11/14 04:02:48;;;;;;;;;;;;;;;3.55;75.40;101165.59;5049806;28;19944;-33
2022/11/14 04:05:13;;;;;;;;;;;;;;;3.55;75.64;101163.00;5033278;28;20372;-33
2022/11/14 04:07:38;;;;;;;;;;;;;;;3.55;76.13;101157.78;5052641;28;20427;-33
2022/11/14 04:10:04;;;;;;;;;;;;;;;3.58;75.31;101150.03;5050440;28;19917;-33
2022/11/14 04:12:29;;;;;;;;;;;;;;;3.58;75.96;101150.94;5057305;28;19927;-33
2022/11/14 04:14:55;;;;;;;;;;;;;;;3.62;75.57;101157.09;5047820;28;20008;-33
2022/11/14 04:17:20;;;;;;;;;;;;;;;3.61;75.26;101150.13;5052624;28;19970;-33
2022/11/14 04:19:45;;;;;;;;;;;;;;;3.60;75.56;101153.56;5067158;28;19966;-32
2022/11/14 04:22:10;;;;;;;;;;;;;;;3.62;75.79;101159.72;5032135;28;20301;-33
2022/11/14 04:24:35;;;;;;;;;;;;;;;3.63;76.03;101147.56;5062133;28;19970;-33
2022/11/14 04:27:01;;;;;;;;;;;;;;;3.63;75.44;101147.56;5048617;28;19970;-33
2022/11/14 04:29:26;;;;;;;;;;;;;;;3.65;75.48;101138.94;5059433;28;19920;-33
2022/11/14 04:31:51;;;;;;;;;;;;;;;3.66;75.47;101132.88;5035884;28;19920;-33
2022/11/14 04:34:16;;;;;;;;;;;;;;;3.67;75.94;101133.75;5052985;28;19975;-33
2022/11/14 04:36:42;;;;;;;;;;;;;;;3.68;75.38;101140.75;5059101;28;20346;-33
2022/11/14 04:39:07;;;;;;;;;;;;;;;3.69;75.59;101132.06;5052214;28;19916;-33
2022/11/14 04:41:32;;;;;;;;;;;;;;;3.67;75.54;101139.84;5057480;28;19917;-33
2022/11/14 04:43:57;;;;;;;;;;;;;;;3.68;75.95;101125.97;5055406;28;20369;-33
2022/11/14 04:46:22;;;;;;;;;;;;;;;3.69;75.73;101122.53;5063245;28;20382;-33
2022/11/14 04:48:48;;;;;;;;;;;;;;;3.68;75.80;101120.75;5058965;28;20282;-33
2022/11/14 04:51:13;;;;;;;;;;;;;;;3.71;75.63;101114.72;5060006;28;19916;-33
2022/11/14 04:53:38;;;;;;;;;;;;;;;3.69;75.98;101114.69;5054348;28;19920;-32
2022/11/14 04:56:03;;;;;;;;;;;;;;;3.70;75.50;101118.19;5039579;28;19920;-33
2022/11/14 04:58:29;;;;;;;;;;;;;;;3.71;75.57;101105.16;5055788;28;19963;-33
2022/11/14 05:00:56;;;;;;;;;;;;;;;3.72;75.50;101095.63;5061435;28;20362;-33
2022/11/14 05:03:21;;;;;;;;;;;;;;;3.74;75.77;101096.56;5062379;28;19967;-33
2022/11/14 05:05:47;;;;;;;;;;;;;;;3.76;75.93;101096.59;5047530;28;19952;-33
2022/11/14 05:08:12;;;;;;;;;;;;;;;3.76;75.34;101091.38;5061880;28;19963;-33
2022/11/14 05:10:41;;;;;;;;;;;;;;;3.76;75.79;101083.56;5058957;28;19916;-33
2022/11/14 05:13:06;;;;;;;;;;;;;;;3.75;75.56;101081.75;5063649;28;20019;-33
2022/11/14 05:15:31;;;;;;;;;;;;;;;3.75;75.98;101079.16;5053820;28;20015;-33
2022/11/14 05:17:57;;;;;;;;;;;;;;;3.75;75.40;101072.22;5067954;28;19991;-33
2022/11/14 05:20:22;;;;;;;;;;;;;;;3.78;75.83;101068.81;5071952;28;19913;-33
2022/11/14 05:22:51;;;;;;;;;;;;;;;3.79;76.12;101067.94;5053741;28;19920;-33
2022/11/14 05:25:16;;;;;;;;;;;;;;;3.79;75.93;101057.50;5052936;28;20344;-33
2022/11/14 05:27:41;;;;;;;;;;;;;;;3.81;75.95;101051.47;5053430;28;19917;-33
2022/11/14 05:30:07;;;;;;;;;;;;;;;3.81;75.52;101046.25;5062891;28;19927;-33
2022/11/14 05:32:32;;;;;;;;;;;;;;;3.81;75.91;101053.22;5073758;28;19951;-33
2022/11/14 05:34:57;;;;;;;;;;;;;;;3.81;76.22;101048.88;5056431;28;19921;-33
2022/11/14 05:37:22;;;;;;;;;;;;;;;3.83;75.75;101052.41;5047993;28;20402;-33
2022/11/14 05:39:48;;;;;;;;;;;;;;;3.83;75.88;101060.25;5060175;28;20427;-33
2022/11/14 05:42:13;;;;;;;;;;;;;;;3.85;75.74;101065.50;5061067;28;19913;-33
2022/11/14 05:44:38;;;;;;;;;;;;;;;3.86;76.27;101062.03;5060265;28;19917;-33
2022/11/14 05:47:03;;;;;;;;;;;;;;;3.88;75.71;101054.25;5053550;28;19924;-33
2022/11/14 05:49:28;;;;;;;;;;;;;;;3.87;76.10;101058.59;5052599;28;19995;-33
2022/11/14 05:51:54;;;;;;;;;;;;;;;3.89;76.26;101071.66;5059556;28;19974;-33
2022/11/14 05:54:19;;;;;;;;;;;;;;;3.90;75.65;101076.94;5051735;28;19917;-33
2022/11/14 05:56:44;;;;;;;;;;;;;;;3.91;75.67;101078.72;5052282;28;19916;-33
2022/11/14 05:59:09;;;;;;;;;;;;;;;3.92;75.96;101067.44;5054838;28;19917;-33
2022/11/14 06:01:34;;;;;;;;;;;;;;;3.93;75.52;101074.41;5058955;28;19925;-33
2022/11/14 06:04:00;;;;;;;;;;;;;;;3.93;75.63;101063.06;5041051;28;19955;-33
2022/11/14 06:06:25;;;;;;;;;;;;;;;3.94;76.16;101077.91;5047203;28;19917;-33
2022/11/14 06:08:51;;;;;;;;;;;;;;;3.95;75.93;101077.94;5057251;28;19930;-33
2022/11/14 06:11:18;;;;;;;;;;;;;;;3.96;75.96;101082.31;5061299;28;19969;-33
2022/11/14 06:13:43;;;;;;;;;;;;;;;3.96;76.18;101082.31;5064842;28;20019;-33
2022/11/14 06:16:10;;;;;;;;;;;;;;;3.97;75.71;101081.47;5073331;28;20446;-33
2022/11/14 06:18:35;;;;;;;;;;;;;;;3.98;76.06;101079.75;5073102;28;19912;-33
2022/11/14 06:21:04;;;;;;;;;;;;;;;4.00;75.82;101077.19;5073032;28;19912;-33
2022/11/14 06:23:30;;;;;;;;;;;;;;;4.01;76.30;101081.53;5051465;28;19921;-33
2022/11/14 06:25:59;;;;;;;;;;;;;;;4.02;76.04;101080.69;5059478;28;19916;-33
2022/11/14 06:28:24;;;;;;;;;;;;;;;4.03;76.22;101079.88;5060602;28;20293;-33
2022/11/14 06:30:49;;;;;;;;;;;;;;;4.04;76.52;101087.72;5054544;28;19917;-33
2022/11/14 06:33:14;;;;;;;;;;;;;;;4.06;76.26;101079.91;5043031;28;20382;-33
2022/11/14 06:35:40;;;;;;;;;;;;;;;4.06;76.58;101090.34;5049171;28;20384;-33
2022/11/14 06:38:05;;;;;;;;;;;;;;;4.08;76.30;101097.41;5059710;28;20028;-33
2022/11/14 06:40:30;;;;;;;;;;;;;;;4.08;76.44;101088.69;5033801;28;20011;-33
2022/11/14 06:42:55;;;;;;;;;;;;;;;4.10;76.11;101098.31;5033749;28;19924;-33
2022/11/14 06:45:21;;;;;;;;;;;;;;;4.11;76.11;101099.22;5051777;28;19962;-33
2022/11/14 06:47:46;;;;;;;;;;;;;;;4.12;76.06;101095.75;5051554;28;19927;-33
2022/11/14 06:50:11;;;;;;;;;;;;;;;4.12;76.10;101087.91;5050920;28;20410;-33
2022/11/14 06:52:36;;;;;;;;;;;;;;;4.13;76.46;101092.28;5049662;28;20285;-33
2022/11/14 06:55:02;;;;;;;;;;;;;;;4.13;76.40;101092.28;5048457;28;20275;-33
2022/11/14 06:57:27;;;;;;;;;;;;;;;4.15;76.00;101090.59;5051634;28;19971;-33
2022/11/14 06:59:52;;;;;;;;;;;;;;;4.17;76.37;101099.34;5052042;28;20263;-33
2022/11/14 07:02:17;;;;;;;;;;;;;;;4.17;76.75;101096.72;5050060;28;20374;-33
2022/11/14 07:04:43;;;;;;;;;;;;;;;4.19;76.49;101099.38;5050790;28;19963;-33
2022/11/14 07:07:08;;;;;;;;;;;;;;;4.18;76.40;101100.22;5056671;28;19917;-33
2022/11/14 07:09:33;;;;;;;;;;;;;;;4.18;76.40;101095.91;5052253;28;19917;-33
2022/11/14 07:11:58;;;;;;;;;;;;;;;4.20;76.10;101104.63;5029348;28;19916;-33
2022/11/14 07:14:23;;;;;;;;;;;;;;;4.20;76.39;101103.78;5044081;28;19928;-33
2022/11/14 07:16:49;;;;;;;;;;;;;;;4.21;76.23;101103.78;5051750;28;19931;-33
2022/11/14 07:19:14;;;;;;;;;;;;;;;4.22;76.54;101107.28;5050218;28;19917;-33
2022/11/14 07:21:39;;;;;;;;;;;;;;;4.22;76.39;101113.41;5055693;28;19917;-33
2022/11/14 07:24:05;;;;;;;;;;;;;;;4.22;76.36;101102.97;5051012;28;20393;-33
2022/11/14 07:26:30;;;;;;;;;;;;;;;4.23;76.73;101098.59;5033379;28;19917;-33
2022/11/14 07:28:55;;;;;;;;;;;;;;;4.24;76.23;101098.63;5051835;28;19927;-33
2022/11/14 07:31:21;;;;;;;;;;;;;;;4.26;76.33;101103.91;5051117;28;19962;-33
2022/11/14 07:33:46;;;;;;;;;;;;;;;4.27;76.62;101112.63;5056393;28;19974;-33
2022/11/14 07:36:12;;;;;;;;;;;;;;;4.27;76.44;101110.03;5051917;28;19916;-33
2022/11/14 07:38:37;;;;;;;;;;;;;;;4.28;76.73;101111.78;5051999;28;20293;-33
2022/11/14 07:41:05;;;;;;;;;;;;;;;4.30;76.81;101117.94;5051358;28;19916;-33
2022/11/14 07:43:31;;;;;;;;;;;;;;;4.31;76.83;101124.91;5051009;28;19967;-33
2022/11/14 07:46:00;;;;;;;;;;;;;;;4.32;76.90;101126.66;5032780;28;19964;-33
2022/11/14 07:48:25;;;;;;;;;;;;;;;4.33;76.99;101124.09;5043059;28;19917;-33
2022/11/14 07:50:50;;;;;;;;;;;;;;;4.33;76.63;101116.25;5038815;28;20285;-33
2022/11/14 07:53:16;;;;;;;;;;;;;;;4.35;76.72;101118.91;5049480;28;19916;-33
2022/11/14 07:55:42;;;;;;;;;;;;;;;4.35;77.51;101111.97;5050596;28;19917;-33
2022/11/14 07:58:07;;;;;;;;;;;;;;;4.37;77.65;101117.25;5032807;28;19966;-33
2022/11/14 08:00:32;;;;;;;;;;;;;;;4.39;77.64;101110.31;5051345;28;19944;-33
2022/11/14 08:02:57;;;;;;;;;;;;;;;4.40;77.51;101111.19;5049510;28;20611;-33
2022/11/14 08:05:23;;;;;;;;;;;;;;;4.39;77.86;101099.84;5059423;28;20016;-33
2022/11/14 08:07:51;;;;;;;;;;;;;;;4.40;77.50;101106.84;5053766;28;20211;-33
2022/11/14 08:10:17;;;;;;;;;;;;;;;4.39;77.01;101105.06;5041759;28;19924;-33
2022/11/14 08:12:42;;;;;;;;;;;;;;;4.40;77.37;101114.66;5054075;28;19924;-33
2022/11/14 08:15:08;;;;;;;;;;;;;;;4.40;77.24;101104.22;5054398;28;19927;-33
2022/11/14 08:17:33;;;;;;;;;;;;;;;4.43;77.70;101106.06;5055054;28;19924;-33
2022/11/14 08:19:58;;;;;;;;;;;;;;;4.44;77.18;101103.44;5036269;28;19917;-33
2022/11/14 08:22:24;;;;;;;;;;;;;;;4.44;77.48;101098.22;5057069;28;19932;-33
2022/11/14 08:24:49;;;;;;;;;;;;;;;4.45;77.65;101102.63;5036916;28;19917;-33
2022/11/14 08:27:14;;;;;;;;;;;;;;;4.46;77.78;101095.66;5054980;28;20430;-33
2022/11/14 08:29:39;;;;;;;;;;;;;;;4.46;77.83;101101.75;5054244;28;19986;-33
2022/11/14 08:32:05;;;;;;;;;;;;;;;4.48;77.92;101096.59;5053975;28;19917;-33
2022/11/14 08:34:30;;;;;;;;;;;;;;;4.50;77.70;101092.25;5053990;28;19928;-34
2022/11/14 08:36:56;;;;;;;;;;;;;;;4.51;77.72;101088.81;5054053;28;19917;-33
2022/11/14 08:39:21;;;;;;;;;;;;;;;4.52;77.83;101087.06;5052835;28;19960;-33
2022/11/14 08:41:47;;;;;;;;;;;;;;;4.53;78.38;101086.25;5060620;28;19964;-33
2022/11/14 08:44:12;;;;;;;;;;;;;;;4.54;77.64;101072.31;5066080;28;19920;-33
2022/11/14 08:46:37;;;;;;;;;;;;;;;4.54;78.13;101072.31;5053684;28;19963;-33
2022/11/14 08:49:02;;;;;;;;;;;;;;;4.56;77.68;101075.84;5052982;28;19916;-33
2022/11/14 08:51:28;;;;;;;;;;;;;;;4.58;77.84;101074.16;5059555;28;20067;-33
2022/11/14 08:53:53;;;;;;;;;;;;;;;4.58;78.04;101074.16;5051605;28;19920;-33
2022/11/14 08:56:18;;;;;;;;;;;;;;;4.60;78.46;101067.22;5043331;28;19917;-33
2022/11/14 08:58:43;;;;;;;;;;;;;;;4.60;78.29;101072.44;5054132;28;19920;-33
2022/11/14 09:01:09;;;;;;;;;;;;;;;4.61;77.59;101079.47;5038363;28;19943;-33
2022/11/14 09:03:34;;;;;;;;;;;;;;;4.64;77.50;101069.06;5032799;28;19917;-33
2022/11/14 09:05:59;;;;;;;;;;;;;;;4.64;77.78;101068.19;5055207;28;19916;-33
2022/11/14 09:08:25;;;;;;;;;;;;;;;4.66;78.40;101074.31;5054069;28;19916;-33
2022/11/14 09:10:50;;;;;;;;;;;;;;;4.67;78.08;101071.72;5052977;28;20003;-33
2022/11/14 09:13:15;;;;;;;;;;;;;;;4.67;77.64;101058.66;5053721;28;19924;-33
2022/11/14 09:15:41;;;;;;;;;;;;;;;4.70;77.34;101053.50;5052295;28;19935;-33
2022/11/14 09:18:06;;;;;;;;;;;;;;;4.71;77.82;101055.25;5060060;28;19920;-33
2022/11/14 09:20:32;;;;;;;;;;;;;;;4.73;77.19;101050.97;5036271;28;19917;-33
2022/11/14 09:22:57;;;;;;;;;;;;;;;4.75;77.93;101054.50;5052115;28;20393;-33
2022/11/14 09:25:23;;;;;;;;;;;;;;;4.75;77.86;101051.91;5053915;28;19917;-33
2022/11/14 09:27:48;;;;;;;;;;;;;;;4.81;77.27;101052.88;5053667;28;19917;-33
2022/11/14 09:30:14;;;;;;;;;;;;;;;4.82;77.41;101046.78;5034218;28;19991;-33
2022/11/14 09:32:39;;;;;;;;;;;;;;;4.84;77.64;101050.31;5052311;28;20377;-33
2022/11/14 09:35:04;;;;;;;;;;;;;;;4.86;77.32;101053.81;5054397;28;19956;-33
2022/11/14 09:37:29;;;;;;;;;;;;;;;4.88;77.27;101054.75;5053709;28;20389;-33
2022/11/14 09:39:55;;;;;;;;;;;;;;;4.90;77.13;101050.44;5052488;28;20116;-33
2022/11/14 09:42:34;;;;;;;;;;;;;;;4.92;77.93;101048.75;5051566;28;19917;-33
2022/11/14 09:45:03;;;;;;;;;;;;;;;4.95;77.31;101059.25;5032389;28;20372;-33
2022/11/14 09:47:29;;;;;;;;;;;;;;;4.97;77.42;101036.63;5036074;28;20023;-33
2022/11/14 09:49:56;;;;;;;;;;;;;;;4.98;77.22;101027.97;5053618;28;20156;-33
2022/11/14 09:52:38;;;;;;;;;;;;;;;5.01;77.27;101035.84;5052207;28;19952;-33
2022/11/14 09:55:09;;;;;;;;;;;;;;;5.03;77.76;101040.25;5048100;28;20402;-33
2022/11/14 09:57:34;;;;;;;;;;;;;;;5.06;77.48;101027.19;5063537;28;20431;-33
2022/11/14 09:59:59;;;;;;;;;;;;;;;5.08;77.18;101028.13;5040042;28;19917;-33
2022/11/14 10:02:40;;;;;;;;;;;;;;;5.11;77.59;101022.97;5053066;28;20019;-33
2022/11/14 10:05:08;;;;;;;;;;;;;;;5.14;77.09;101025.63;5052506;28;19952;-33
2022/11/14 10:07:52;;;;;;;;;;;;;;;5.16;77.32;101018.69;5052058;28;19917;-33
2022/11/14 10:10:17;;;;;;;;;;;;;;;5.19;77.37;101015.25;5051194;28;20344;-33
2022/11/14 10:12:45;;;;;;;;;;;;;;;5.22;77.26;101016.19;5060364;28;19962;-33
2022/11/14 10:15:25;;;;;;;;;;;;;;;5.24;77.04;101014.47;5032955;28;19928;-33
2022/11/14 10:17:50;;;;;;;;;;;;;;;5.29;77.13;101021.53;5048465;28;19917;-33
2022/11/14 10:20:31;;;;;;;;;;;;;;;5.32;77.59;101019.88;5041045;28;19923;-33
2022/11/14 10:23:10;;;;;;;;;;;;;;;5.37;76.88;101022.56;5014795;28;19931;-34
2022/11/14 10:25:36;;;;;;;;;;;;;;;5.40;77.05;101014.75;5033668;28;20017;-33
2022/11/14 10:28:07;;;;;;;;;;;;;;;5.45;77.09;101026.19;5035559;28;19971;-33
2022/11/14 10:30:44;;;;;;;;;;;;;;;5.52;77.14;101020.22;5042368;28;20366;-33
2022/11/14 10:33:12;;;;;;;;;;;;;;;5.59;77.46;101012.47;5034134;28;20313;-33
2022/11/14 10:35:37;;;;;;;;;;;;;;;5.63;76.91;101009.94;5033967;28;19921;-33
2022/11/14 10:38:20;;;;;;;;;;;;;;;5.68;76.84;101010.00;5051830;28;19916;-33
2022/11/14 10:40:57;;;;;;;;;;;;;;;5.74;77.15;101017.09;5030355;28;19917;-33
2022/11/14 10:43:33;;;;;;;;;;;;;;;5.78;76.97;101001.44;5034277;28;19912;-33
2022/11/14 10:46:04;;;;;;;;;;;;;;;5.86;76.83;101000.69;5049988;28;19924;-33
2022/11/14 10:48:31;;;;;;;;;;;;;;;5.91;77.07;101001.66;5049174;28;19916;-33
2022/11/14 10:51:05;;;;;;;;;;;;;;;5.97;77.07;101001.72;5032142;28;19916;-33
2022/11/14 10:53:49;;;;;;;;;;;;;;;6.04;77.06;101000.13;5054421;28;19944;-33
2022/11/14 10:56:15;;;;;;;;;;;;;;;6.11;77.16;100998.47;5066219;28;19920;-33
2022/11/14 10:58:40;;;;;;;;;;;;;;;6.16;77.24;100988.94;5034209;28;20297;-33
2022/11/14 11:01:24;;;;;;;;;;;;;;;6.22;76.69;100981.19;5051666;28;19912;-33
2022/11/14 11:03:49;;;;;;;;;;;;;;;6.29;77.03;100980.41;5051604;28;19943;-33
2022/11/14 11:06:25;;;;;;;;;;;;;;;6.35;76.91;100982.22;5050238;28;19912;-33
2022/11/14 11:11:36;;;;;;;;;;;;;;;6.48;77.16;100978.03;5053051;28;19924;-33
2022/11/14 11:14:02;;;;;;;;;;;;;;;6.54;76.85;100977.22;5049527;28;20162;-33
2022/11/14 11:16:28;;;;;;;;;;;;;;;6.60;76.67;100969.41;5051109;28;20432;-33
2022/11/14 11:18:53;;;;;;;;;;;;;;;6.65;77.03;100967.75;5051216;28;19962;-33
2022/11/14 11:21:20;;;;;;;;;;;;;;;6.69;76.49;100960.78;5028145;28;19967;-33
2022/11/14 11:23:49;;;;;;;;;;;;;;;6.76;76.33;100959.13;5042833;28;19928;-32
2022/11/14 11:26:16;;;;;;;;;;;;;;;6.82;76.94;100960.94;5048542;28;19917;-32
2022/11/14 11:28:41;;;;;;;;;;;;;;;6.87;76.65;100960.13;5035657;28;19917;-33
2022/11/14 11:31:07;;;;;;;;;;;;;;;6.92;76.69;100962.78;5049794;28;19932;-33
2022/11/14 11:33:34;;;;;;;;;;;;;;;6.97;77.10;100955.84;5049487;28;20019;-32
2022/11/14 11:36:00;;;;;;;;;;;;;;;7.02;76.98;100954.16;5046067;28;19917;-33
2022/11/14 11:38:26;;;;;;;;;;;;;;;7.08;77.05;100957.72;5058859;28;20007;-33
2022/11/14 11:40:53;;;;;;;;;;;;;;;7.15;76.74;100954.28;5030800;28;19917;-33
2022/11/14 11:43:38;;;;;;;;;;;;;;;7.20;77.15;100947.31;5047301;28;19927;-33
2022/11/14 11:46:04;;;;;;;;;;;;;;;7.27;76.92;100959.63;5041833;28;19970;-33
2022/11/14 11:48:38;;;;;;;;;;;;;;;7.33;77.24;100948.31;5045133;28;19925;-33
2022/11/14 11:51:04;;;;;;;;;;;;;;;7.38;76.88;100951.00;5047737;28;19924;-33
2022/11/14 11:53:36;;;;;;;;;;;;;;;7.45;77.32;100944.94;5058220;28;19924;-33
2022/11/14 11:56:11;;;;;;;;;;;;;;;7.52;77.41;100954.63;5046160;28;20005;-33
2022/11/14 11:58:40;;;;;;;;;;;;;;;7.57;77.38;100947.66;5019078;28;19917;-33
2022/11/14 12:01:08;;;;;;;;;;;;;;;7.64;77.52;100939.81;5047391;28;19975;-33
2022/11/14 12:03:33;;;;;;;;;;;;;;;7.70;77.27;100947.72;5033309;28;19925;-33
2022/11/14 12:06:15;;;;;;;;;;;;;;;7.75;77.31;100946.03;5057373;28;19970;-33
2022/11/14 12:08:40;;;;;;;;;;;;;;;7.82;77.54;100937.34;5042812;28;19978;-33
2022/11/14 12:11:07;;;;;;;;;;;;;;;7.88;77.67;100920.75;5049161;28;20389;-33
2022/11/14 12:13:51;;;;;;;;;;;;;;;7.95;77.47;100932.16;5031179;28;19962;-33
2022/11/14 12:16:17;;;;;;;;;;;;;;;8.01;77.45;100942.69;5041563;28;19987;-33
2022/11/14 12:18:48;;;;;;;;;;;;;;;8.08;77.82;100933.97;5043567;28;20323;-32
2022/11/14 12:21:18;;;;;;;;;;;;;;;8.13;77.65;100936.63;5049913;28;19948;-32
2022/11/14 12:24:02;;;;;;;;;;;;;;;8.18;77.51;100934.03;5047553;28;20000;-32
2022/11/14 12:26:47;;;;;;;;;;;;;;;8.25;77.61;100927.03;5045301;28;20370;-32
2022/11/14 12:29:27;;;;;;;;;;;;;;;8.32;77.50;100927.09;5041861;28;19961;-33
2022/11/14 12:31:55;;;;;;;;;;;;;;;8.38;77.49;100925.34;5049033;28;20327;-33
2022/11/14 12:34:20;;;;;;;;;;;;;;;8.43;77.49;100928.88;5036072;28;20042;-33
2022/11/14 12:36:45;;;;;;;;;;;;;;;8.48;77.43;100924.53;5046576;28;20016;-33
2022/11/14 12:39:20;;;;;;;;;;;;;;;8.55;77.38;100928.06;5038697;28;20017;-32
2022/11/14 12:41:45;;;;;;;;;;;;;;;8.61;77.44;100925.47;5022512;28;19990;-32
2022/11/14 12:44:16;;;;;;;;;;;;;;;8.66;77.22;100933.34;5043228;28;20465;-32
2022/11/14 12:47:00;;;;;;;;;;;;;;;8.71;77.20;100935.13;5049676;28;20011;-33
2022/11/14 12:49:36;;;;;;;;;;;;;;;8.77;77.23;100926.38;5063209;28;19923;-33